createdAt,value
2018-07-16T00:02:11.476Z,18.00
2018-07-16T00:04:44.993Z,17.90
2018-07-16T00:07:18.484Z,17.90
2018-07-16T00:09:52.071Z,17.90
2018-07-16T00:12:25.609Z,17.90
2018-07-16T00:14:59.057Z,17.80
2018-07-16T00:17:32.816Z,17.70
2018-07-16T00:24:42.898Z,17.70
2018-07-16T00:27:16.543Z,17.70
2018-07-16T00:29:49.953Z,17.70
2018-07-16T00:32:23.430Z,17.70
2018-07-16T00:34:56.906Z,17.70
2018-07-16T00:37:30.360Z,17.80
2018-07-16T00:40:03.818Z,17.80
2018-07-16T00:42:37.280Z,17.80
2018-07-16T00:45:10.734Z,17.90
2018-07-16T00:47:44.198Z,18.00
2018-07-16T00:50:17.685Z,18.00
2018-07-16T00:52:51.149Z,18.00
2018-07-16T00:55:24.588Z,18.00
2018-07-16T01:00:31.188Z,17.90
2018-07-16T01:03:04.697Z,17.90
2018-07-16T01:05:38.133Z,17.90
2018-07-16T01:08:11.660Z,17.90
2018-07-16T01:10:45.118Z,17.80
2018-07-16T01:13:18.542Z,17.80
2018-07-16T01:15:51.998Z,17.80
2018-07-16T01:18:25.409Z,17.80
2018-07-16T01:20:59.049Z,17.80
2018-07-16T01:23:32.464Z,17.80
2018-07-16T01:26:06.043Z,17.80
2018-07-16T01:28:39.515Z,17.80
2018-07-16T01:31:13.030Z,17.80
2018-07-16T01:33:46.456Z,17.80
2018-07-16T01:38:52.975Z,17.70
2018-07-16T01:41:26.438Z,17.80
2018-07-16T01:43:59.932Z,17.70
2018-07-16T01:46:33.390Z,17.70
2018-07-16T01:49:06.880Z,17.70
2018-07-16T01:51:40.344Z,17.60
2018-07-16T01:54:13.783Z,17.60
2018-07-16T01:56:47.889Z,17.60
2018-07-16T01:59:21.333Z,17.60
2018-07-16T02:01:54.828Z,17.60
2018-07-16T02:04:28.285Z,17.60
2018-07-16T02:07:01.733Z,17.60
2018-07-16T02:09:35.189Z,17.60
2018-07-16T02:12:08.638Z,17.60
2018-07-16T02:14:42.102Z,17.50
2018-07-16T02:17:15.555Z,17.50
2018-07-16T02:19:49.051Z,17.60
2018-07-16T02:22:22.484Z,17.60
2018-07-16T02:24:55.934Z,17.60
2018-07-16T02:27:29.382Z,17.60
2018-07-16T02:30:02.907Z,17.60
2018-07-16T02:32:36.319Z,17.70
2018-07-16T02:35:09.842Z,17.70
2018-07-16T02:37:43.322Z,17.60
2018-07-16T02:40:16.859Z,17.60
2018-07-16T02:42:50.314Z,17.50
2018-07-16T02:45:23.790Z,17.50
2018-07-16T02:47:57.817Z,17.50
2018-07-16T02:50:31.259Z,17.50
2018-07-16T02:53:04.742Z,17.50
2018-07-16T02:55:38.165Z,17.50
2018-07-16T02:58:11.604Z,17.50
2018-07-16T03:00:45.117Z,17.40
2018-07-16T03:03:18.552Z,17.40
2018-07-16T03:05:52.016Z,17.40
2018-07-16T03:08:25.462Z,17.40
2018-07-16T03:10:58.948Z,17.40
2018-07-16T03:13:32.391Z,17.40
2018-07-16T03:16:05.828Z,17.30
2018-07-16T03:18:39.297Z,17.30
2018-07-16T03:21:12.735Z,17.30
2018-07-16T03:23:46.229Z,17.20
2018-07-16T03:26:19.695Z,17.20
2018-07-16T03:28:53.130Z,17.20
2018-07-16T03:31:26.566Z,17.20
2018-07-16T03:34:00.042Z,17.20
2018-07-16T03:36:33.465Z,17.10
2018-07-16T03:39:08.619Z,17.10
2018-07-16T03:41:42.051Z,17.10
2018-07-16T03:44:15.501Z,17.10
2018-07-16T03:46:48.943Z,17.00
2018-07-16T03:49:22.456Z,17.10
2018-07-16T03:51:55.879Z,17.00
2018-07-16T03:54:29.503Z,17.00
2018-07-16T03:57:02.967Z,17.10
2018-07-16T03:59:36.449Z,17.10
2018-07-16T04:02:09.949Z,17.10
2018-07-16T05:14:25.749Z,18.30
2018-07-16T05:16:59.230Z,18.60
2018-07-16T05:19:32.698Z,19.10
2018-07-16T05:22:06.365Z,19.60
2018-07-16T05:24:39.881Z,20.80
2018-07-16T05:27:13.352Z,21.70
2018-07-16T05:29:46.783Z,22.80
2018-07-16T05:32:20.294Z,23.50
2018-07-16T05:34:53.751Z,23.90
2018-07-16T05:37:27.203Z,23.50
2018-07-16T05:40:00.700Z,23.30
2018-07-16T05:42:34.162Z,23.60
2018-07-16T05:45:08.008Z,23.30
2018-07-16T05:47:41.517Z,22.70
2018-07-16T05:50:14.936Z,22.80
2018-07-16T05:52:48.390Z,23.10
2018-07-16T05:55:21.861Z,23.10
2018-07-16T05:57:55.304Z,22.80
2018-07-16T06:00:28.752Z,22.40
2018-07-16T06:03:02.228Z,21.90
2018-07-16T06:05:35.692Z,21.70
2018-07-16T06:08:09.377Z,21.60
2018-07-16T06:10:42.799Z,21.30
2018-07-16T06:13:16.264Z,21.00
2018-07-16T06:15:49.732Z,21.00
2018-07-16T06:18:23.197Z,20.80
2018-07-16T06:20:56.660Z,20.80
2018-07-16T06:23:30.150Z,21.10
2018-07-16T06:26:03.726Z,21.40
2018-07-16T06:28:37.216Z,21.70
2018-07-16T06:31:10.706Z,22.00
2018-07-16T06:33:44.215Z,22.30
2018-07-16T06:36:17.762Z,22.90
2018-07-16T06:38:51.241Z,23.20
2018-07-16T06:41:25.166Z,23.30
2018-07-16T06:43:58.245Z,23.10
2018-07-16T06:46:31.773Z,22.50
2018-07-16T06:49:05.253Z,22.40
2018-07-16T06:51:38.971Z,22.10
2018-07-16T06:54:12.384Z,22.20
2018-07-16T06:56:45.839Z,21.90
2018-07-16T06:59:19.272Z,21.90
2018-07-16T07:01:52.741Z,21.70
2018-07-16T07:04:26.205Z,21.80
2018-07-16T07:06:59.690Z,21.70
2018-07-16T07:09:33.129Z,21.60
2018-07-16T07:12:06.618Z,21.40
2018-07-16T07:14:40.094Z,21.30
2018-07-16T07:17:13.580Z,21.20
2018-07-16T07:19:47.014Z,21.10
2018-07-16T07:22:20.492Z,21.00
2018-07-16T07:24:53.925Z,21.00
2018-07-16T07:27:27.416Z,20.80
2018-07-16T07:30:00.828Z,20.70
2018-07-16T07:32:34.281Z,20.60
2018-07-16T07:35:07.855Z,20.50
2018-07-16T07:37:41.264Z,20.40
2018-07-16T07:40:14.736Z,20.40
2018-07-16T07:42:48.167Z,20.50
2018-07-16T07:45:21.606Z,20.50
2018-07-16T07:47:55.097Z,20.40
2018-07-16T07:50:28.568Z,20.40
2018-07-16T07:53:02.068Z,20.40
2018-07-16T07:55:35.752Z,20.60
2018-07-16T07:58:09.200Z,20.40
2018-07-16T08:00:42.632Z,20.40
2018-07-16T08:03:16.191Z,20.20
2018-07-16T08:05:55.020Z,20.20
2018-07-16T08:08:28.475Z,20.10
2018-07-16T08:11:02.328Z,20.00
2018-07-16T08:13:35.809Z,20.00
2018-07-16T08:16:09.319Z,20.00
2018-07-16T08:18:42.805Z,20.00
2018-07-16T08:21:16.285Z,20.00
2018-07-16T08:23:49.796Z,20.00
2018-07-16T08:26:23.273Z,20.20
2018-07-16T08:28:56.802Z,20.20
2018-07-16T08:31:30.255Z,20.00
2018-07-16T08:34:03.790Z,20.20
2018-07-16T08:36:37.257Z,20.20
2018-07-16T08:39:10.840Z,20.20
2018-07-16T08:41:44.349Z,20.30
2018-07-16T08:44:17.847Z,20.30
2018-07-16T08:46:51.330Z,20.40
2018-07-16T08:49:24.768Z,20.60
2018-07-16T08:51:58.308Z,20.70
2018-07-16T08:54:31.777Z,20.90
2018-07-16T08:57:05.395Z,21.20
2018-07-16T08:59:38.821Z,21.40
2018-07-16T09:02:12.359Z,21.70
2018-07-16T09:04:45.802Z,21.90
2018-07-16T09:07:19.223Z,22.10
2018-07-16T09:09:52.760Z,22.10
2018-07-16T09:12:26.166Z,22.20
2018-07-16T09:14:59.674Z,22.20
2018-07-16T09:17:33.089Z,22.20
2018-07-16T09:20:06.607Z,22.20
2018-07-16T09:22:40.094Z,22.30
2018-07-16T09:25:13.570Z,22.30
2018-07-16T09:27:47.052Z,22.30
2018-07-16T09:30:20.789Z,22.50
2018-07-16T09:32:54.275Z,22.70
2018-07-16T09:35:27.691Z,22.70
2018-07-16T09:38:01.161Z,22.80
2018-07-16T09:40:34.669Z,23.00
2018-07-16T09:43:08.171Z,23.30
2018-07-16T09:45:41.701Z,23.30
2018-07-16T09:48:15.146Z,23.40
2018-07-16T09:50:48.578Z,23.40
2018-07-16T09:53:22.040Z,23.50
2018-07-16T09:55:55.530Z,23.70
2018-07-16T09:58:29.002Z,23.70
2018-07-16T10:01:07.747Z,23.80
2018-07-16T10:03:41.267Z,24.00
2018-07-16T10:06:14.721Z,24.40
2018-07-16T10:08:48.234Z,24.40
2018-07-16T10:11:21.697Z,24.60
2018-07-16T10:13:55.252Z,24.50
2018-07-16T10:16:28.728Z,24.60
2018-07-16T10:19:02.564Z,24.40
2018-07-16T10:21:36.039Z,24.30
2018-07-16T10:24:09.532Z,24.20
2018-07-16T10:26:43.011Z,24.50
2018-07-16T10:29:16.461Z,24.70
2018-07-16T10:31:49.928Z,24.80
2018-07-16T10:34:23.389Z,25.10
2018-07-16T10:36:56.834Z,25.10
2018-07-16T10:39:30.425Z,25.10
2018-07-16T10:42:03.880Z,25.20
2018-07-16T10:44:37.356Z,25.20
2018-07-16T10:47:11.113Z,25.50
2018-07-16T10:49:44.627Z,25.60
2018-07-16T10:52:18.068Z,25.80
2018-07-16T10:54:51.519Z,25.90
2018-07-16T10:57:25.029Z,25.90
2018-07-16T10:59:58.497Z,26.00
2018-07-16T11:02:31.958Z,25.70
2018-07-16T11:05:05.426Z,25.70
2018-07-16T11:07:38.923Z,25.90
2018-07-16T11:10:12.482Z,25.90
2018-07-16T11:12:45.990Z,25.80
2018-07-16T11:15:19.461Z,25.70
2018-07-16T11:17:52.979Z,25.90
2018-07-16T11:20:26.384Z,25.90
2018-07-16T11:22:59.952Z,25.90
2018-07-16T11:25:33.462Z,26.00
2018-07-16T11:28:06.967Z,26.10
2018-07-16T11:30:40.442Z,25.80
2018-07-16T11:33:13.953Z,25.90
2018-07-16T11:35:47.563Z,25.90
2018-07-16T11:38:21.066Z,25.70
2018-07-16T11:40:54.548Z,25.50
2018-07-16T11:43:28.100Z,25.70
2018-07-16T11:46:01.626Z,25.80
2018-07-16T11:48:35.088Z,26.00
2018-07-16T11:51:08.608Z,25.90
2018-07-16T11:53:42.082Z,26.00
2018-07-16T11:56:15.552Z,26.10
2018-07-16T11:58:49.114Z,26.20
2018-07-16T12:01:22.622Z,26.30
2018-07-16T12:03:56.172Z,26.40
2018-07-16T12:06:29.725Z,26.40
2018-07-16T12:09:03.359Z,26.40
2018-07-16T12:11:36.855Z,26.30
2018-07-16T12:14:10.284Z,26.20
2018-07-16T12:16:43.789Z,26.20
2018-07-16T12:19:17.256Z,26.10
2018-07-16T12:21:50.732Z,26.20
2018-07-16T12:24:24.204Z,26.10
2018-07-16T12:26:57.654Z,26.30
2018-07-16T12:29:31.124Z,26.40
2018-07-16T12:32:04.589Z,26.40
2018-07-16T12:34:38.060Z,26.50
2018-07-16T12:37:11.916Z,26.50
2018-07-16T12:39:45.368Z,26.40
2018-07-16T12:42:19.345Z,26.50
2018-07-16T12:44:52.795Z,26.50
2018-07-16T12:47:26.272Z,26.60
2018-07-16T12:49:59.751Z,26.60
2018-07-16T12:52:33.250Z,26.80
2018-07-16T12:55:06.950Z,26.90
2018-07-16T12:57:40.460Z,27.00
2018-07-16T13:00:13.962Z,27.00
2018-07-16T13:02:47.408Z,26.90
2018-07-16T13:05:20.876Z,26.90
2018-07-16T13:07:54.322Z,26.90
2018-07-16T13:10:27.822Z,26.80
2018-07-16T13:13:01.293Z,26.80
2018-07-16T13:15:34.764Z,26.80
2018-07-16T13:18:08.277Z,26.70
2018-07-16T13:20:41.776Z,26.70
2018-07-16T13:23:15.277Z,26.70
2018-07-16T13:25:48.789Z,26.60
2018-07-16T13:28:22.305Z,26.70
2018-07-16T13:30:55.806Z,26.60
2018-07-16T13:33:29.244Z,26.90
2018-07-16T13:36:02.765Z,27.00
2018-07-16T13:38:36.259Z,26.90
2018-07-16T13:41:09.747Z,27.00
2018-07-16T13:43:43.181Z,26.90
2018-07-16T13:46:16.698Z,26.80
2018-07-16T13:48:50.155Z,26.90
2018-07-16T13:51:23.640Z,26.80
2018-07-16T13:53:57.106Z,27.00
2018-07-16T13:56:30.645Z,27.30
2018-07-16T13:59:04.126Z,27.30
2018-07-16T14:01:37.631Z,27.00
2018-07-16T14:04:11.229Z,26.90
2018-07-16T14:06:44.714Z,26.90
2018-07-16T14:09:18.196Z,26.60
2018-07-16T14:11:51.671Z,26.20
2018-07-16T14:14:25.141Z,26.20
2018-07-16T14:16:58.639Z,26.30
2018-07-16T14:19:32.094Z,26.30
2018-07-16T14:22:05.554Z,26.40
2018-07-16T14:24:39.027Z,26.40
2018-07-16T14:27:12.460Z,26.40
2018-07-16T14:29:45.973Z,26.40
2018-07-16T14:32:19.474Z,26.50
2018-07-16T14:34:52.991Z,26.50
2018-07-16T14:37:26.410Z,26.30
2018-07-16T14:40:00.222Z,26.20
2018-07-16T14:42:33.757Z,26.20
2018-07-16T14:45:07.272Z,26.00
2018-07-16T14:47:40.916Z,26.00
2018-07-16T14:50:14.320Z,25.90
2018-07-16T14:52:47.817Z,25.90
2018-07-16T14:55:21.314Z,25.80
2018-07-16T14:57:54.833Z,25.70
2018-07-16T15:00:28.296Z,25.70
2018-07-16T15:05:34.905Z,25.50
2018-07-16T15:08:08.407Z,25.40
2018-07-16T15:10:41.864Z,25.40
2018-07-16T15:13:15.376Z,25.50
2018-07-16T15:15:48.872Z,25.50
2018-07-16T15:18:22.372Z,25.50
2018-07-16T15:20:56.188Z,25.30
2018-07-16T15:23:29.501Z,25.30
2018-07-16T15:26:02.928Z,25.30
2018-07-16T15:28:36.387Z,25.20
2018-07-16T15:33:43.151Z,25.30
2018-07-16T15:36:16.673Z,25.30
2018-07-16T15:38:56.821Z,25.20
2018-07-16T15:41:30.453Z,25.30
2018-07-16T15:44:04.007Z,25.20
2018-07-16T15:46:37.441Z,25.10
2018-07-16T15:49:10.884Z,25.20
2018-07-16T15:51:44.380Z,25.30
2018-07-16T15:54:17.910Z,25.40
2018-07-16T15:56:51.357Z,25.50
2018-07-16T15:59:24.786Z,25.60
2018-07-16T16:01:58.305Z,25.60
2018-07-16T16:04:31.773Z,25.70
2018-07-16T16:07:07.153Z,25.60
2018-07-16T16:09:41.239Z,25.50
2018-07-16T16:12:14.780Z,25.50
2018-07-16T16:14:49.098Z,25.30
2018-07-16T16:17:22.517Z,25.10
2018-07-16T16:19:56.088Z,24.80
2018-07-16T16:22:29.541Z,24.80
2018-07-16T16:25:02.998Z,24.50
2018-07-16T16:27:36.588Z,24.30
2018-07-16T16:30:10.066Z,24.10
2018-07-16T16:32:43.642Z,23.90
2018-07-16T16:35:17.020Z,23.80
2018-07-16T16:37:50.570Z,23.70
2018-07-16T16:40:24.218Z,23.70
2018-07-16T16:42:57.917Z,23.80
2018-07-16T16:45:31.312Z,23.60
2018-07-16T16:48:04.888Z,23.70
2018-07-16T16:50:38.389Z,23.70
2018-07-16T16:53:11.903Z,23.70
2018-07-16T16:55:45.362Z,23.80
2018-07-16T16:58:18.904Z,23.80
2018-07-16T17:00:52.792Z,23.80
2018-07-16T17:03:26.327Z,23.80
2018-07-16T17:05:59.781Z,23.70
2018-07-16T17:08:33.264Z,23.70
2018-07-16T17:11:06.814Z,23.70
2018-07-16T17:13:40.359Z,23.60
2018-07-16T17:16:13.991Z,23.60
2018-07-16T17:18:47.472Z,23.60
2018-07-16T17:21:20.961Z,23.60
2018-07-16T17:23:54.494Z,23.50
2018-07-16T17:26:28.033Z,23.50
2018-07-16T17:29:01.503Z,23.50
2018-07-16T17:31:34.969Z,23.50
2018-07-16T17:34:08.420Z,23.50
2018-07-16T17:36:42.035Z,23.40
2018-07-16T17:39:15.499Z,23.40
2018-07-16T17:41:49.013Z,23.40
2018-07-16T17:44:22.483Z,23.40
2018-07-16T17:46:55.950Z,23.40
2018-07-16T17:49:29.418Z,23.50
2018-07-16T17:52:02.964Z,23.50
2018-07-16T17:54:36.516Z,23.50
2018-07-16T17:57:10.410Z,23.50
2018-07-16T18:02:17.116Z,23.30
2018-07-16T18:04:50.600Z,23.30
2018-07-16T18:07:24.152Z,23.20
2018-07-16T18:09:57.603Z,23.10
2018-07-16T18:12:31.113Z,23.10
2018-07-16T18:15:04.645Z,23.00
2018-07-16T18:17:38.222Z,22.80
2018-07-16T18:20:11.740Z,22.80
2018-07-16T18:22:45.310Z,22.70
2018-07-16T18:25:25.571Z,22.60
2018-07-16T18:27:59.049Z,22.50
2018-07-16T18:33:05.746Z,22.30
2018-07-16T18:35:39.263Z,22.30
2018-07-16T18:38:12.789Z,22.20
2018-07-16T18:40:46.270Z,22.10
2018-07-16T18:43:19.712Z,22.00
2018-07-16T18:45:53.262Z,21.90
2018-07-16T18:48:26.753Z,21.90
2018-07-16T18:51:00.194Z,21.80
2018-07-16T18:53:34.275Z,21.60
2018-07-16T18:56:07.833Z,21.60
2018-07-16T18:58:41.366Z,21.50
2018-07-16T19:01:14.910Z,21.40
2018-07-16T19:03:48.382Z,21.30
2018-07-16T19:06:21.875Z,21.30
2018-07-16T19:08:55.363Z,21.20
2018-07-16T19:11:28.888Z,21.20
2018-07-16T19:14:02.463Z,21.10
2018-07-16T19:16:36.103Z,21.00
2018-07-16T19:19:09.629Z,20.90
2018-07-16T19:21:43.132Z,20.80
2018-07-16T19:24:16.617Z,20.70
2018-07-16T19:26:50.109Z,20.70
2018-07-16T19:29:23.543Z,20.60
2018-07-16T19:34:30.148Z,20.50
2018-07-16T19:37:03.975Z,20.40
2018-07-16T19:39:37.488Z,20.40
2018-07-16T19:42:11.032Z,20.40
2018-07-16T19:44:44.716Z,20.30
2018-07-16T19:47:18.228Z,20.20
2018-07-16T19:49:51.695Z,20.20
2018-07-16T19:52:25.179Z,20.10
2018-07-16T19:54:59.245Z,20.10
2018-07-16T19:57:32.929Z,20.00
2018-07-16T20:00:07.140Z,19.90
2018-07-16T20:02:40.661Z,19.90
2018-07-16T20:05:14.119Z,19.90
2018-07-16T20:07:47.684Z,19.80
2018-07-16T20:10:21.196Z,19.70
2018-07-16T20:12:54.698Z,19.70
2018-07-16T20:15:28.386Z,19.60
2018-07-16T20:18:01.811Z,19.50
2018-07-16T20:20:49.823Z,19.50
2018-07-16T20:23:23.444Z,19.40
2018-07-16T20:25:58.132Z,19.40
2018-07-16T20:28:31.690Z,19.30
2018-07-16T20:31:05.161Z,19.20
2018-07-16T20:33:38.616Z,19.20
2018-07-16T20:36:12.093Z,19.10
2018-07-16T20:38:45.611Z,19.10
2018-07-16T20:41:19.078Z,19.10
2018-07-16T20:43:52.564Z,19.10
2018-07-16T20:46:26.085Z,19.10
2018-07-16T20:48:59.623Z,19.00
2018-07-16T20:51:33.042Z,19.00
2018-07-16T20:56:40.167Z,18.90
2018-07-16T20:59:13.661Z,18.80
2018-07-16T21:01:47.437Z,18.70
2018-07-16T21:04:20.905Z,18.70
2018-07-16T21:06:54.381Z,18.60
2018-07-16T21:09:27.932Z,18.60
2018-07-16T21:12:01.474Z,18.50
2018-07-16T21:14:34.979Z,18.50
2018-07-16T21:17:08.591Z,18.40
2018-07-16T21:19:42.025Z,18.30
2018-07-16T21:22:15.549Z,18.30
2018-07-16T21:24:49.300Z,18.30
2018-07-16T21:27:22.749Z,18.30
2018-07-16T21:29:56.213Z,18.20
2018-07-16T21:32:29.701Z,18.10
2018-07-16T21:35:03.439Z,18.10
2018-07-16T21:37:36.890Z,18.10
2018-07-16T21:40:10.369Z,18.00
2018-07-16T21:42:43.797Z,18.00
2018-07-16T21:45:17.257Z,18.00
2018-07-16T21:47:50.764Z,17.90
2018-07-16T21:50:24.284Z,17.80
2018-07-16T21:52:57.731Z,17.80
2018-07-16T21:55:31.176Z,17.80
2018-07-16T21:58:04.653Z,17.70
2018-07-16T22:00:38.187Z,17.70
2018-07-16T22:03:11.599Z,17.60
2018-07-16T22:05:45.071Z,17.60
2018-07-16T22:08:18.496Z,17.50
2018-07-16T22:10:51.942Z,17.50
2018-07-16T22:13:25.372Z,17.50
2018-07-16T22:15:58.872Z,17.50
2018-07-16T22:18:32.377Z,17.40
2018-07-16T22:21:05.870Z,17.40
2018-07-16T22:23:39.336Z,17.40
2018-07-16T22:26:12.829Z,17.30
2018-07-16T22:28:46.269Z,17.30
2018-07-16T22:31:19.702Z,17.20
2018-07-16T22:33:53.175Z,17.10
2018-07-16T22:36:26.593Z,17.10
2018-07-16T22:39:00.093Z,17.10
2018-07-16T22:41:33.536Z,17.10
2018-07-16T22:44:07.018Z,17.10
2018-07-16T22:46:40.459Z,17.00
2018-07-16T22:49:13.900Z,17.00
2018-07-16T22:51:47.343Z,17.00
2018-07-16T22:54:20.817Z,16.90
2018-07-16T22:56:54.241Z,16.80
2018-07-16T22:59:27.740Z,16.80
2018-07-16T23:02:01.224Z,16.80
2018-07-16T23:04:34.700Z,16.80
2018-07-16T23:07:08.454Z,16.60
2018-07-16T23:09:42.077Z,16.60
2018-07-16T23:12:15.518Z,16.50
2018-07-16T23:14:48.986Z,16.60
2018-07-16T23:17:22.397Z,16.60
2018-07-16T23:19:55.871Z,16.60
2018-07-16T23:22:29.285Z,16.60
2018-07-16T23:25:02.728Z,16.50
2018-07-16T23:27:36.152Z,16.50
2018-07-16T23:30:09.628Z,16.50
2018-07-16T23:32:43.329Z,16.50
2018-07-16T23:35:17.480Z,16.50
2018-07-16T23:37:50.890Z,16.40
2018-07-16T23:40:24.305Z,16.40
2018-07-16T23:42:57.731Z,16.40
2018-07-16T23:45:31.171Z,16.30
2018-07-16T23:48:04.957Z,16.30
2018-07-16T23:50:38.369Z,16.20
2018-07-16T23:53:11.803Z,16.20
2018-07-16T23:55:45.224Z,16.20
2018-07-16T23:58:18.653Z,16.20
